sensor_id;sensor_type;location;lat;lon;timestamp;pressure;altitude;pressure_sealevel;temperature;humidity
37610;BME280;23457;51.966;8.230;2023-10-31T00:00:42;98748.97;;;13.69;100.00
37610;BME280;23457;51.966;8.230;2023-10-31T00:03:09;98756.69;;;13.74;100.00
37610;BME280;23457;51.966;8.230;2023-10-31T00:05:37;98750.28;;;13.85;100.00
37610;BME280;23457;51.966;8.230;2023-10-31T00:08:04;98755.56;;;13.82;100.00
37610;BME280;23457;51.966;8.230;2023-10-31T00:10:31;98758.16;;;13.84;100.00
37610;BME280;23457;51.966;8.230;2023-10-31T00:12:58;98751.25;;;13.81;100.00
37610;BME280;23457;51.966;8.230;2023-10-31T00:15:24;98755.16;;;13.67;100.00
37610;BME280;23457;51.966;8.230;2023-10-31T00:17:51;98752.50;;;13.68;100.00
37610;BME280;23457;51.966;8.230;2023-10-31T00:20:18;98760.13;;;13.76;100.00
37610;BME280;23457;51.966;8.230;2023-10-31T00:22:44;98752.50;;;13.68;100.00
37610;BME280;23457;51.966;8.230;2023-10-31T00:25:11;98750.97;;;13.61;100.00
37610;BME280;23457;51.966;8.230;2023-10-31T00:27:38;98750.09;;;13.60;100.00
37610;BME280;23457;51.966;8.230;2023-10-31T00:30:05;98740.44;;;13.64;100.00
37610;BME280;23457;51.966;8.230;2023-10-31T00:32:32;98743.50;;;13.80;100.00
37610;BME280;23457;51.966;8.230;2023-10-31T00:34:59;98738.66;;;13.66;100.00
37610;BME280;23457;51.966;8.230;2023-10-31T00:37:26;98740.44;;;13.64;100.00
37610;BME280;23457;51.966;8.230;2023-10-31T00:39:52;98745.13;;;13.82;100.00
37610;BME280;23457;51.966;8.230;2023-10-31T00:42:19;98738.38;;;13.75;100.00
37610;BME280;23457;51.966;8.230;2023-10-31T00:44:46;98731.44;;;13.74;100.00
37610;BME280;23457;51.966;8.230;2023-10-31T00:47:12;98736.34;;;13.85;100.00
37610;BME280;23457;51.966;8.230;2023-10-31T00:49:39;98735.78;;;13.75;100.00
37610;BME280;23457;51.966;8.230;2023-10-31T00:52:05;98733.16;;;13.75;100.00
37610;BME280;23457;51.966;8.230;2023-10-31T00:54:32;98733.16;;;13.75;100.00
37610;BME280;23457;51.966;8.230;2023-10-31T00:56:59;98728.22;;;13.66;100.00
37610;BME280;23457;51.966;8.230;2023-10-31T00:59:26;98730.56;;;13.75;100.00
37610;BME280;23457;51.966;8.230;2023-10-31T01:01:52;98722.41;;;13.86;100.00
37610;BME280;23457;51.966;8.230;2023-10-31T01:04:19;98729.38;;;13.85;100.00
37610;BME280;23457;51.966;8.230;2023-10-31T01:06:46;98717.50;;;13.75;100.00
37610;BME280;23457;51.966;8.230;2023-10-31T01:09:13;98734.69;;;13.82;100.00
37610;BME280;23457;51.966;8.230;2023-10-31T01:11:40;98728.88;;;13.73;100.00
37610;BME280;23457;51.966;8.230;2023-10-31T01:14:06;98728.88;;;13.73;100.00
37610;BME280;23457;51.966;8.230;2023-10-31T01:16:33;98724.97;;;13.87;100.00
37610;BME280;23457;51.966;8.230;2023-10-31T01:19:00;98716.56;;;13.78;100.00
37610;BME280;23457;51.966;8.230;2023-10-31T01:21:27;98723.00;;;13.66;100.00
37610;BME280;23457;51.966;8.230;2023-10-31T01:23:53;98716.47;;;13.50;100.00
37610;BME280;23457;51.966;8.230;2023-10-31T01:26:20;98720.94;;;13.45;100.00
37610;BME280;23457;51.966;8.230;2023-10-31T01:28:47;98718.31;;;13.46;100.00
37610;BME280;23457;51.966;8.230;2023-10-31T01:31:13;98716.47;;;13.50;100.00
37610;BME280;23457;51.966;8.230;2023-10-31T01:33:40;98725.19;;;13.49;100.00
37610;BME280;23457;51.966;8.230;2023-10-31T01:36:07;98725.13;;;13.52;100.00
37610;BME280;23457;51.966;8.230;2023-10-31T01:38:34;98738.47;;;13.41;100.00
37610;BME280;23457;51.966;8.230;2023-10-31T01:41:00;98757.66;;;13.39;100.00
37610;BME280;23457;51.966;8.230;2023-10-31T01:43:35;98748.03;;;13.41;100.00
37610;BME280;23457;51.966;8.230;2023-10-31T01:46:03;98745.81;;;13.25;100.00
37610;BME280;23457;51.966;8.230;2023-10-31T01:48:31;98746.59;;;12.93;100.00
37610;BME280;23457;51.966;8.230;2023-10-31T01:51:01;98751.38;;;12.76;100.00
37610;BME280;23457;51.966;8.230;2023-10-31T01:53:32;98759.66;;;12.56;100.00
37610;BME280;23457;51.966;8.230;2023-10-31T01:56:00;98759.25;;;12.36;100.00
37610;BME280;23457;51.966;8.230;2023-10-31T01:58:35;98763.69;;;12.31;100.00
37610;BME280;23457;51.966;8.230;2023-10-31T02:01:04;98765.34;;;12.35;100.00
37610;BME280;23457;51.966;8.230;2023-10-31T02:03:31;98778.81;;;12.15;100.00
37610;BME280;23457;51.966;8.230;2023-10-31T02:05:59;98770.16;;;12.15;100.00
37610;BME280;23457;51.966;8.230;2023-10-31T02:08:26;98772.91;;;12.07;100.00
37610;BME280;23457;51.966;8.230;2023-10-31T02:10:53;98774.31;;;12.22;100.00
37610;BME280;23457;51.966;8.230;2023-10-31T02:13:20;98764.44;;;11.98;100.00
37610;BME280;23457;51.966;8.230;2023-10-31T02:15:47;98762.88;;;11.89;100.00
37610;BME280;23457;51.966;8.230;2023-10-31T02:18:14;98777.78;;;11.79;100.00
37610;BME280;23457;51.966;8.230;2023-10-31T02:20:41;98765.78;;;11.72;100.00
37610;BME280;23457;51.966;8.230;2023-10-31T02:23:08;98774.75;;;11.56;100.00
37610;BME280;23457;51.966;8.230;2023-10-31T02:25:34;98779.28;;;11.93;100.00
37610;BME280;23457;51.966;8.230;2023-10-31T02:28:01;98768.34;;;11.77;100.00
37610;BME280;23457;51.966;8.230;2023-10-31T02:30:28;98769.22;;;11.74;100.00
37610;BME280;23457;51.966;8.230;2023-10-31T02:32:54;98776.41;;;11.60;100.00
37610;BME280;23457;51.966;8.230;2023-10-31T02:35:21;98761.66;;;11.61;100.00
37610;BME280;23457;51.966;8.230;2023-10-31T02:37:48;98772.16;;;11.56;100.00
37610;BME280;23457;51.966;8.230;2023-10-31T02:40:15;98761.75;;;11.56;100.00
37610;BME280;23457;51.966;8.230;2023-10-31T02:42:42;98777.56;;;11.45;100.00
37610;BME280;23457;51.966;8.230;2023-10-31T02:45:10;98784.34;;;11.53;100.00
37610;BME280;23457;51.966;8.230;2023-10-31T02:47:38;98777.59;;;11.42;100.00
37610;BME280;23457;51.966;8.230;2023-10-31T02:50:05;98788.91;;;11.40;100.00
37610;BME280;23457;51.966;8.230;2023-10-31T02:52:32;98783.72;;;11.40;100.00
37610;BME280;23457;51.966;8.230;2023-10-31T02:54:59;98790.59;;;11.44;100.00
37610;BME280;23457;51.966;8.230;2023-10-31T02:57:26;98791.63;;;11.35;100.00
37610;BME280;23457;51.966;8.230;2023-10-31T02:59:52;98811.72;;;11.26;100.00
37610;BME280;23457;51.966;8.230;2023-10-31T03:02:19;98828.88;;;11.36;100.00
37610;BME280;23457;51.966;8.230;2023-10-31T03:04:47;98822.81;;;11.37;100.00
37610;BME280;23457;51.966;8.230;2023-10-31T03:07:14;98834.19;;;11.30;100.00
37610;BME280;23457;51.966;8.230;2023-10-31T03:09:41;98847.16;;;11.31;100.00
37610;BME280;23457;51.966;8.230;2023-10-31T03:12:08;98843.75;;;11.28;100.00
37610;BME280;23457;51.966;8.230;2023-10-31T03:14:34;98851.63;;;11.25;100.00
37610;BME280;23457;51.966;8.230;2023-10-31T03:17:01;98863.75;;;11.26;100.00
37610;BME280;23457;51.966;8.230;2023-10-31T03:19:28;98866.94;;;11.40;100.00
37610;BME280;23457;51.966;8.230;2023-10-31T03:21:55;98863.94;;;11.13;100.00
37610;BME280;23457;51.966;8.230;2023-10-31T03:24:22;98869.63;;;11.37;100.00
37610;BME280;23457;51.966;8.230;2023-10-31T03:26:48;98878.75;;;11.07;100.00
37610;BME280;23457;51.966;8.230;2023-10-31T03:29:15;98865.69;;;11.11;100.00
37610;BME280;23457;51.966;8.230;2023-10-31T03:31:41;98876.16;;;11.05;100.00
37610;BME280;23457;51.966;8.230;2023-10-31T03:34:08;98891.53;;;11.21;100.00
37610;BME280;23457;51.966;8.230;2023-10-31T03:36:35;98876.28;;;10.99;100.00
37610;BME280;23457;51.966;8.230;2023-10-31T03:39:01;98885.81;;;11.00;100.00
37610;BME280;23457;51.966;8.230;2023-10-31T03:41:28;98883.13;;;11.03;100.00
37610;BME280;23457;51.966;8.230;2023-10-31T03:43:55;98891.69;;;11.11;100.00
37610;BME280;23457;51.966;8.230;2023-10-31T03:46:22;98891.78;;;11.04;100.00
37610;BME280;23457;51.966;8.230;2023-10-31T03:48:49;98895.22;;;11.07;100.00
37610;BME280;23457;51.966;8.230;2023-10-31T03:51:21;98911.88;;;10.93;100.00
37610;BME280;23457;51.966;8.230;2023-10-31T03:53:48;98905.78;;;10.95;100.00
37610;BME280;23457;51.966;8.230;2023-10-31T03:56:15;98915.31;;;10.95;100.00
37610;BME280;23457;51.966;8.230;2023-10-31T03:58:42;98911.91;;;10.90;100.00
37610;BME280;23457;51.966;8.230;2023-10-31T04:01:09;98914.56;;;10.88;100.00
37610;BME280;23457;51.966;8.230;2023-10-31T04:03:36;98924.84;;;10.94;100.00
37610;BME280;23457;51.966;8.230;2023-10-31T04:06:03;98937.03;;;10.89;100.00
37610;BME280;23457;51.966;8.230;2023-10-31T04:08:33;98923.31;;;10.81;100.00
37610;BME280;23457;51.966;8.230;2023-10-31T04:10:59;98933.56;;;10.90;100.00
37610;BME280;23457;51.966;8.230;2023-10-31T04:13:26;98933.81;;;10.75;100.00
37610;BME280;23457;51.966;8.230;2023-10-31T04:15:53;98934.75;;;10.68;100.00
37610;BME280;23457;51.966;8.230;2023-10-31T04:18:19;98932.16;;;10.65;100.00
37610;BME280;23457;51.966;8.230;2023-10-31T04:20:46;98936.50;;;10.66;100.00
37610;BME280;23457;51.966;8.230;2023-10-31T04:23:14;98946.81;;;10.73;100.00
37610;BME280;23457;51.966;8.230;2023-10-31T04:25:40;98947.81;;;10.62;100.00
37610;BME280;23457;51.966;8.230;2023-10-31T04:28:08;98952.16;;;10.61;100.00
37610;BME280;23457;51.966;8.230;2023-10-31T04:30:34;98959.88;;;10.66;100.00
37610;BME280;23457;51.966;8.230;2023-10-31T04:33:01;98957.19;;;10.73;100.00
37610;BME280;23457;51.966;8.230;2023-10-31T04:35:28;98965.00;;;10.72;100.00
37610;BME280;23457;51.966;8.230;2023-10-31T04:37:54;98965.88;;;10.72;100.00
37610;BME280;23457;51.966;8.230;2023-10-31T04:40:21;98967.31;;;10.95;100.00
37610;BME280;23457;51.966;8.230;2023-10-31T04:42:48;98973.81;;;10.62;100.00
37610;BME280;23457;51.966;8.230;2023-10-31T04:45:14;98971.94;;;10.71;100.00
37610;BME280;23457;51.966;8.230;2023-10-31T04:47:41;98981.47;;;10.71;100.00
37610;BME280;23457;51.966;8.230;2023-10-31T04:50:11;98974.59;;;10.65;100.00
37610;BME280;23457;51.966;8.230;2023-10-31T04:52:38;98991.75;;;10.80;100.00
37610;BME280;23457;51.966;8.230;2023-10-31T04:55:05;98985.81;;;10.69;100.00
37610;BME280;23457;51.966;8.230;2023-10-31T04:57:32;98994.28;;;10.86;100.00
37610;BME280;23457;51.966;8.230;2023-10-31T04:59:59;98994.34;;;10.80;100.00
37610;BME280;23457;51.966;8.230;2023-10-31T05:02:25;99001.41;;;10.70;100.00
37610;BME280;23457;51.966;8.230;2023-10-31T05:04:52;99004.84;;;10.71;100.00
37610;BME280;23457;51.966;8.230;2023-10-31T05:07:19;99004.69;;;10.85;100.00
37610;BME280;23457;51.966;8.230;2023-10-31T05:09:46;99006.28;;;10.96;100.00
37610;BME280;23457;51.966;8.230;2023-10-31T05:12:13;99005.28;;;11.05;100.00
37610;BME280;23457;51.966;8.230;2023-10-31T05:14:40;99005.63;;;10.77;100.00
37610;BME280;23457;51.966;8.230;2023-10-31T05:17:07;99009.06;;;10.80;100.00
37610;BME280;23457;51.966;8.230;2023-10-31T05:19:33;99013.47;;;10.76;100.00
37610;BME280;23457;51.966;8.230;2023-10-31T05:22:00;99016.13;;;10.71;100.00
37610;BME280;23457;51.966;8.230;2023-10-31T05:24:26;99010.22;;;10.57;100.00
37610;BME280;23457;51.966;8.230;2023-10-31T05:26:53;99012.50;;;10.83;100.00
37610;BME280;23457;51.966;8.230;2023-10-31T05:29:45;99016.03;;;10.77;100.00
37610;BME280;23457;51.966;8.230;2023-10-31T05:32:12;99015.13;;;10.82;100.00
37610;BME280;23457;51.966;8.230;2023-10-31T05:34:39;99019.41;;;10.87;100.00
37610;BME280;23457;51.966;8.230;2023-10-31T05:37:05;99024.44;;;11.01;100.00
37610;BME280;23457;51.966;8.230;2023-10-31T05:39:32;99023.59;;;10.97;100.00
37610;BME280;23457;51.966;8.230;2023-10-31T05:41:59;99028.91;;;10.88;100.00
37610;BME280;23457;51.966;8.230;2023-10-31T05:44:25;99030.59;;;10.92;100.00
37610;BME280;23457;51.966;8.230;2023-10-31T05:46:52;99030.53;;;10.98;100.00
37610;BME280;23457;51.966;8.230;2023-10-31T05:49:19;99032.25;;;10.99;100.00
37610;BME280;23457;51.966;8.230;2023-10-31T05:51:52;99036.66;;;10.90;100.00
37610;BME280;23457;51.966;8.230;2023-10-31T05:54:19;99039.25;;;10.91;100.00
37610;BME280;23457;51.966;8.230;2023-10-31T05:56:46;99038.34;;;10.95;100.00
37610;BME280;23457;51.966;8.230;2023-10-31T05:59:13;99041.53;;;11.17;100.00
37610;BME280;23457;51.966;8.230;2023-10-31T06:01:39;99046.09;;;11.01;100.00
37610;BME280;23457;51.966;8.230;2023-10-31T06:04:07;99042.44;;;11.14;100.00
37610;BME280;23457;51.966;8.230;2023-10-31T06:06:37;99044.28;;;11.06;100.00
37610;BME280;23457;51.966;8.230;2023-10-31T06:09:04;99054.75;;;11.00;100.00
37610;BME280;23457;51.966;8.230;2023-10-31T06:11:31;99052.81;;;11.14;100.00
37610;BME280;23457;51.966;8.230;2023-10-31T06:13:59;99054.44;;;11.25;100.00
37610;BME280;23457;51.966;8.230;2023-10-31T06:16:25;99060.59;;;11.16;100.00
37610;BME280;23457;51.966;8.230;2023-10-31T06:18:52;99064.78;;;11.28;100.00
37610;BME280;23457;51.966;8.230;2023-10-31T06:21:19;99069.47;;;11.01;100.00
37610;BME280;23457;51.966;8.230;2023-10-31T06:23:45;99069.22;;;11.21;100.00
37610;BME280;23457;51.966;8.230;2023-10-31T06:26:12;99075.28;;;11.22;100.00
37610;BME280;23457;51.966;8.230;2023-10-31T06:28:39;99076.16;;;11.22;100.00
37610;BME280;23457;51.966;8.230;2023-10-31T06:31:18;99072.56;;;11.31;100.00
37610;BME280;23457;51.966;8.230;2023-10-31T06:33:44;99084.88;;;11.17;100.00
37610;BME280;23457;51.966;8.230;2023-10-31T06:36:11;99082.47;;;11.01;100.00
37610;BME280;23457;51.966;8.230;2023-10-31T06:38:38;99089.22;;;11.16;100.00
37610;BME280;23457;51.966;8.230;2023-10-31T06:41:04;99091.94;;;11.07;100.00
37610;BME280;23457;51.966;8.230;2023-10-31T06:43:31;99093.66;;;11.08;100.00
37610;BME280;23457;51.966;8.230;2023-10-31T06:46:01;99097.25;;;10.98;100.00
37610;BME280;23457;51.966;8.230;2023-10-31T06:48:29;99094.78;;;10.87;100.00
37610;BME280;23457;51.966;8.230;2023-10-31T06:50:57;99099.00;;;10.96;100.00
37610;BME280;23457;51.966;8.230;2023-10-31T06:53:25;99104.31;;;10.87;100.00
37610;BME280;23457;51.966;8.230;2023-10-31T06:55:52;99103.56;;;10.74;100.00
37610;BME280;23457;51.966;8.230;2023-10-31T06:58:19;99118.34;;;10.67;100.00
37610;BME280;23457;51.966;8.230;2023-10-31T07:00:45;99120.03;;;10.74;100.00
37610;BME280;23457;51.966;8.230;2023-10-31T07:03:12;99122.69;;;10.64;100.00
37610;BME280;23457;51.966;8.230;2023-10-31T07:05:42;99143.44;;;10.70;100.00
37610;BME280;23457;51.966;8.230;2023-10-31T07:08:09;99141.69;;;10.72;100.00
37610;BME280;23457;51.966;8.230;2023-10-31T07:10:36;99141.91;;;10.48;100.00
37610;BME280;23457;51.966;8.230;2023-10-31T07:13:03;99144.44;;;10.55;100.00
37610;BME280;23457;51.966;8.230;2023-10-31T07:15:29;99154.16;;;10.32;100.00
37610;BME280;23457;51.966;8.230;2023-10-31T07:17:56;99153.22;;;10.39;100.00
37610;BME280;23457;51.966;8.230;2023-10-31T07:20:23;99160.13;;;10.46;100.00
37610;BME280;23457;51.966;8.230;2023-10-31T07:22:49;99152.22;;;10.57;100.00
37610;BME280;23457;51.966;8.230;2023-10-31T07:25:16;99175.50;;;10.66;100.00
37610;BME280;23457;51.966;8.230;2023-10-31T07:27:43;99166.09;;;10.53;100.00
37610;BME280;23457;51.966;8.230;2023-10-31T07:30:10;99174.81;;;10.49;100.00
37610;BME280;23457;51.966;8.230;2023-10-31T07:32:39;99172.97;;;10.63;100.00
37610;BME280;23457;51.966;8.230;2023-10-31T07:35:06;99174.81;;;10.50;100.00
37610;BME280;23457;51.966;8.230;2023-10-31T07:37:36;99178.28;;;10.51;100.00
37610;BME280;23457;51.966;8.230;2023-10-31T07:40:03;99178.13;;;10.66;100.00
37610;BME280;23457;51.966;8.230;2023-10-31T07:42:30;99172.88;;;10.72;100.00
37610;BME280;23457;51.966;8.230;2023-10-31T07:44:57;99177.09;;;10.85;100.00
37610;BME280;23457;51.966;8.230;2023-10-31T07:47:24;99179.78;;;10.73;100.00
37610;BME280;23457;51.966;8.230;2023-10-31T07:49:50;99184.88;;;10.85;100.00
37610;BME280;23457;51.966;8.230;2023-10-31T07:52:17;99186.72;;;10.74;100.00
37610;BME280;23457;51.966;8.230;2023-10-31T07:54:44;99185.88;;;10.72;100.00
37610;BME280;23457;51.966;8.230;2023-10-31T07:57:11;99185.09;;;10.61;100.00
37610;BME280;23457;51.966;8.230;2023-10-31T07:59:37;99188.41;;;10.78;100.00
37610;BME280;23457;51.966;8.230;2023-10-31T08:02:04;99183.09;;;10.90;100.00
37610;BME280;23457;51.966;8.230;2023-10-31T08:04:32;99193.47;;;10.90;100.00
37610;BME280;23457;51.966;8.230;2023-10-31T08:06:58;99198.94;;;10.63;100.00
37610;BME280;23457;51.966;8.230;2023-10-31T08:09:25;99206.47;;;10.90;100.00
37610;BME280;23457;51.966;8.230;2023-10-31T08:11:52;99209.16;;;10.83;100.00
37610;BME280;23457;51.966;8.230;2023-10-31T08:14:19;99217.75;;;10.89;100.00
37610;BME280;23457;51.966;8.230;2023-10-31T08:16:46;99218.81;;;10.68;100.00
37610;BME280;23457;51.966;8.230;2023-10-31T08:19:13;99229.94;;;10.81;100.00
37610;BME280;23457;51.966;8.230;2023-10-31T08:21:40;99230.94;;;10.66;100.00
37610;BME280;23457;51.966;8.230;2023-10-31T08:24:07;99240.34;;;10.83;100.00
37610;BME280;23457;51.966;8.230;2023-10-31T08:26:34;99242.09;;;10.79;100.00
37610;BME280;23457;51.966;8.230;2023-10-31T08:29:01;99239.34;;;10.96;100.00
37610;BME280;23457;51.966;8.230;2023-10-31T08:31:28;99235.88;;;10.98;100.00
37610;BME280;23457;51.966;8.230;2023-10-31T08:33:54;99241.06;;;11.00;100.00
37610;BME280;23457;51.966;8.230;2023-10-31T08:36:21;99241.13;;;10.91;100.00
37610;BME280;23457;51.966;8.230;2023-10-31T08:38:48;99241.22;;;10.83;100.00
37610;BME280;23457;51.966;8.230;2023-10-31T08:41:15;99246.41;;;10.80;100.00
37610;BME280;23457;51.966;8.230;2023-10-31T08:43:46;99246.06;;;11.20;100.00
37610;BME280;23457;51.966;8.230;2023-10-31T08:46:13;99247.06;;;11.03;100.00
37610;BME280;23457;51.966;8.230;2023-10-31T08:48:40;99251.28;;;11.18;100.00
37610;BME280;23457;51.966;8.230;2023-10-31T08:51:06;99257.47;;;11.06;100.00
37610;BME280;23457;51.966;8.230;2023-10-31T08:53:33;99257.47;;;11.05;100.00
37610;BME280;23457;51.966;8.230;2023-10-31T08:56:00;99267.84;;;11.06;100.00
37610;BME280;23457;51.966;8.230;2023-10-31T08:58:27;99271.97;;;11.27;100.00
37610;BME280;23457;51.966;8.230;2023-10-31T09:00:55;99278.22;;;11.12;100.00
37610;BME280;23457;51.966;8.230;2023-10-31T09:03:21;99272.84;;;11.28;100.00
37610;BME280;23457;51.966;8.230;2023-10-31T09:05:48;99274.41;;;11.44;100.00
37610;BME280;23457;51.966;8.230;2023-10-31T09:08:15;99283.81;;;11.57;100.00
37610;BME280;23457;51.966;8.230;2023-10-31T09:10:43;99288.31;;;11.43;100.00
37610;BME280;23457;51.966;8.230;2023-10-31T09:13:13;99288.09;;;11.64;100.00
37610;BME280;23457;51.966;8.230;2023-10-31T09:15:39;99288.53;;;11.22;100.00
37610;BME280;23457;51.966;8.230;2023-10-31T09:18:07;99288.44;;;11.31;100.00
37610;BME280;23457;51.966;8.230;2023-10-31T09:20:34;99288.19;;;11.54;100.00
37610;BME280;23457;51.966;8.230;2023-10-31T09:23:01;99286.56;;;11.42;100.00
37610;BME280;23457;51.966;8.230;2023-10-31T09:25:28;99295.22;;;11.47;100.00
37610;BME280;23457;51.966;8.230;2023-10-31T09:27:57;99300.44;;;11.45;100.00
37610;BME280;23457;51.966;8.230;2023-10-31T09:30:25;99300.19;;;11.65;100.00
37610;BME280;23457;51.966;8.230;2023-10-31T09:32:53;99307.94;;;11.73;100.00
37610;BME280;23457;51.966;8.230;2023-10-31T09:35:20;99305.34;;;11.76;100.00
37610;BME280;23457;51.966;8.230;2023-10-31T09:37:46;99310.41;;;11.90;100.00
37610;BME280;23457;51.966;8.230;2023-10-31T09:40:15;99314.81;;;11.80;100.00
37610;BME280;23457;51.966;8.230;2023-10-31T09:42:44;99313.78;;;11.96;100.00
37610;BME280;23457;51.966;8.230;2023-10-31T09:45:13;99307.94;;;11.73;100.00
37610;BME280;23457;51.966;8.230;2023-10-31T09:47:41;99320.78;;;11.91;100.00
37610;BME280;23457;51.966;8.230;2023-10-31T09:50:11;99327.06;;;11.70;100.00
37610;BME280;23457;51.966;8.230;2023-10-31T09:52:38;99335.72;;;11.77;100.00
37610;BME280;23457;51.966;8.230;2023-10-31T09:55:06;99339.13;;;11.80;100.00
37610;BME280;23457;51.966;8.230;2023-10-31T09:57:33;99345.25;;;11.73;100.00
37610;BME280;23457;51.966;8.230;2023-10-31T10:00:00;99350.63;;;11.57;100.00
37610;BME280;23457;51.966;8.230;2023-10-31T10:02:35;99363.59;;;11.60;100.00
37610;BME280;23457;51.966;8.230;2023-10-31T10:05:02;99370.47;;;11.67;100.00
37610;BME280;23457;51.966;8.230;2023-10-31T10:07:30;99380.34;;;11.30;100.00
37610;BME280;23457;51.966;8.230;2023-10-31T10:09:56;99381.97;;;11.43;100.00
37610;BME280;23457;51.966;8.230;2023-10-31T10:12:23;99395.03;;;11.38;100.00
37610;BME280;23457;51.966;8.230;2023-10-31T10:14:50;99394.72;;;11.70;100.00
37610;BME280;23457;51.966;8.230;2023-10-31T10:17:21;99405.94;;;11.78;100.00
37610;BME280;23457;51.966;8.230;2023-10-31T10:20:07;99397.44;;;11.58;100.00
37610;BME280;23457;51.966;8.230;2023-10-31T10:22:39;99404.25;;;11.74;100.00
37610;BME280;23457;51.966;8.230;2023-10-31T10:25:06;99411.31;;;11.59;100.00
37610;BME280;23457;51.966;8.230;2023-10-31T10:27:35;99406.94;;;11.64;100.00
37610;BME280;23457;51.966;8.230;2023-10-31T10:30:03;99407.00;;;11.55;100.00
37610;BME280;23457;51.966;8.230;2023-10-31T10:32:31;99411.22;;;11.66;100.00
37610;BME280;23457;51.966;8.230;2023-10-31T10:34:57;99412.19;;;11.58;100.00
37610;BME280;23457;51.966;8.230;2023-10-31T10:37:26;99424.34;;;11.56;100.00
37610;BME280;23457;51.966;8.230;2023-10-31T10:39:53;99422.59;;;11.59;100.00
37610;BME280;23457;51.966;8.230;2023-10-31T10:42:31;99422.66;;;11.52;100.00
37610;BME280;23457;51.966;8.230;2023-10-31T10:45:03;99426.81;;;11.72;100.00
37610;BME280;23457;51.966;8.230;2023-10-31T10:47:31;99432.94;;;11.65;100.00
37610;BME280;23457;51.966;8.230;2023-10-31T10:50:00;99443.41;;;11.56;100.00
37610;BME280;23457;51.966;8.230;2023-10-31T10:52:32;99447.81;;;11.51;100.00
37610;BME280;23457;51.966;8.230;2023-10-31T10:55:12;99449.47;;;11.61;100.00
37610;BME280;23457;51.966;8.230;2023-10-31T10:57:50;99454.69;;;11.55;100.00
37610;BME280;23457;51.966;8.230;2023-10-31T11:00:20;99453.84;;;11.53;100.00
37610;BME280;23457;51.966;8.230;2023-10-31T11:02:52;99451.50;;;11.20;100.00
37610;BME280;23457;51.966;8.230;2023-10-31T11:05:20;99465.38;;;11.19;100.00
37610;BME280;23457;51.966;8.230;2023-10-31T11:07:47;99457.41;;;11.43;100.00
37610;BME280;23457;51.966;8.230;2023-10-31T11:10:14;99459.91;;;11.54;100.00
37610;BME280;23457;51.966;8.230;2023-10-31T11:12:41;99464.28;;;11.52;100.00
37610;BME280;23457;51.966;8.230;2023-10-31T11:15:10;99469.44;;;11.55;100.00
37610;BME280;23457;51.966;8.230;2023-10-31T11:17:40;99467.88;;;11.34;100.00
37610;BME280;23457;51.966;8.230;2023-10-31T11:20:13;99474.63;;;11.58;100.00
37610;BME280;23457;51.966;8.230;2023-10-31T11:22:43;99477.22;;;11.59;100.00
37610;BME280;23457;51.966;8.230;2023-10-31T11:25:15;99478.88;;;11.75;100.00
37610;BME280;23457;51.966;8.230;2023-10-31T11:27:57;99471.03;;;11.78;100.00
37610;BME280;23457;51.966;8.230;2023-10-31T11:30:36;99469.16;;;11.94;100.00
37610;BME280;23457;51.966;8.230;2023-10-31T11:33:03;99473.44;;;12.00;100.00
37610;BME280;23457;51.966;8.230;2023-10-31T11:35:35;99477.88;;;11.90;100.00
37610;BME280;23457;51.966;8.230;2023-10-31T11:38:09;99473.63;;;11.78;100.00
37610;BME280;23457;51.966;8.230;2023-10-31T11:40:57;99481.38;;;11.89;100.00
37610;BME280;23457;51.966;8.230;2023-10-31T11:43:35;99481.31;;;11.92;100.00
37610;BME280;23457;51.966;8.230;2023-10-31T11:46:02;99480.38;;;12.01;100.00
37610;BME280;23457;51.966;8.230;2023-10-31T11:48:47;99491.69;;;11.97;100.00
37610;BME280;23457;51.966;8.230;2023-10-31T11:51:13;99496.06;;;11.95;100.00
37610;BME280;23457;51.966;8.230;2023-10-31T11:53:40;99490.06;;;11.85;100.00
37610;BME280;23457;51.966;8.230;2023-10-31T11:56:17;99497.78;;;11.96;100.00
37610;BME280;23457;51.966;8.230;2023-10-31T11:58:44;99494.31;;;11.97;100.00
37610;BME280;23457;51.966;8.230;2023-10-31T12:01:11;99495.91;;;12.11;100.00
37610;BME280;23457;51.966;8.230;2023-10-31T12:03:42;99504.69;;;12.00;100.00
37610;BME280;23457;51.966;8.230;2023-10-31T12:06:10;99495.91;;;12.13;100.00
37610;BME280;23457;51.966;8.230;2023-10-31T12:08:38;99493.31;;;12.10;100.00
37610;BME280;23457;51.966;8.230;2023-10-31T12:11:09;99497.50;;;12.26;100.00
37610;BME280;23457;51.966;8.230;2023-10-31T12:13:39;99508.88;;;12.16;100.00
37610;BME280;23457;51.966;8.230;2023-10-31T12:16:07;99501.97;;;12.12;100.00
37610;BME280;23457;51.966;8.230;2023-10-31T12:18:35;99513.91;;;12.33;100.00
37610;BME280;23457;51.966;8.230;2023-10-31T12:21:02;99503.75;;;12.07;100.00
37610;BME280;23457;51.966;8.230;2023-10-31T12:23:30;99499.13;;;12.36;100.00
37610;BME280;23457;51.966;8.230;2023-10-31T12:25:56;99501.84;;;12.27;100.00
37610;BME280;23457;51.966;8.230;2023-10-31T12:28:25;99510.44;;;12.32;100.00
37610;BME280;23457;51.966;8.230;2023-10-31T12:30:53;99509.81;;;12.09;100.00
37610;BME280;23457;51.966;8.230;2023-10-31T12:33:27;99514.88;;;12.26;100.00
37610;BME280;23457;51.966;8.230;2023-10-31T12:35:59;99518.38;;;12.20;100.00
37610;BME280;23457;51.966;8.230;2023-10-31T12:38:27;99515.72;;;12.28;100.00
37610;BME280;23457;51.966;8.230;2023-10-31T12:40:55;99509.78;;;12.15;100.00
37610;BME280;23457;51.966;8.230;2023-10-31T12:43:23;99518.38;;;12.20;100.00
37610;BME280;23457;51.966;8.230;2023-10-31T12:45:51;99518.25;;;12.35;100.00
37610;BME280;23457;51.966;8.230;2023-10-31T12:48:23;99529.56;;;12.31;100.00
37610;BME280;23457;51.966;8.230;2023-10-31T12:51:06;99528.56;;;12.44;100.00
37610;BME280;23457;51.966;8.230;2023-10-31T12:53:33;99527.53;;;12.59;100.00